Time;durP1;ratioP1;P1;durP2;ratioP2;P2;SDS_P1;SDS_P2;PMS_P1;PMS_P2;Temp;Humidity;BMP_temperature;BMP_pressure;BME280_temperature;BME280_humidity;BME280_pressure;Samples;Min_cycle;Max_cycle;Signal;HPM_P1;HPM_P2
2022/02/14 00:01:45;;;;;;;5.72;2.47;;;8.30;99.90;;;;;;6062439;23;20013;-95
2022/02/14 00:04:20;;;;;;;4.45;1.92;;;8.20;99.90;;;;;;6060664;23;20010;-94
2022/02/14 00:06:46;;;;;;;4.05;2.17;;;8.20;99.90;;;;;;6049220;23;20010;-94
2022/02/14 00:09:18;;;;;;;6.13;2.38;;;8.30;99.90;;;;;;6022962;23;20006;-93
2022/02/14 00:11:44;;;;;;;5.47;2.22;;;8.30;99.90;;;;;;6045206;23;20768;-95
2022/02/14 00:14:12;;;;;;;5.38;2.20;;;8.30;99.90;;;;;;6084212;23;20020;-93
2022/02/14 00:16:41;;;;;;;6.03;2.10;;;8.20;99.90;;;;;;6043803;23;20010;-94
2022/02/14 00:19:10;;;;;;;5.47;2.30;;;8.30;99.90;;;;;;6094270;23;20068;-93
2022/02/14 00:21:38;;;;;;;5.00;1.77;;;8.20;99.90;;;;;;6047471;23;20009;-92
2022/02/14 00:24:19;;;;;;;4.22;1.92;;;8.30;99.90;;;;;;6063855;23;20010;-93
2022/02/14 00:26:50;;;;;;;6.88;1.90;;;8.30;99.90;;;;;;6041757;23;20013;-94
2022/02/14 00:29:24;;;;;;;7.93;2.25;;;8.30;99.90;;;;;;6052132;23;20016;-94
2022/02/14 00:32:00;;;;;;;;;;;;;;;;;;;;;
2022/02/14 00:34:33;;;;;;;5.45;2.47;;;8.30;99.90;;;;;;6108952;23;20410;-95
2022/02/14 00:37:04;;;;;;;8.77;2.63;;;8.20;99.90;;;;;;6091958;23;20069;-93
2022/02/14 00:39:36;;;;;;;8.48;2.85;;;8.20;99.90;;;;;;6025427;23;20010;-93
2022/02/14 00:42:05;;;;;;;4.18;1.90;;;8.20;99.90;;;;;;6067138;23;20439;-95
2022/02/14 00:44:36;;;;;;;4.65;2.95;;;8.20;99.90;;;;;;6076130;23;20039;-93
2022/02/14 00:47:02;;;;;;;5.07;1.80;;;8.30;99.90;;;;;;6071478;23;20596;-93
2022/02/14 00:49:30;;;;;;;4.53;1.85;;;8.40;99.90;;;;;;6037910;23;20020;-94
2022/02/14 00:51:56;;;;;;;5.13;2.33;;;8.30;99.90;;;;;;6064480;23;20080;-91
2022/02/14 00:54:24;;;;;;;7.70;2.33;;;8.20;99.90;;;;;;6041631;23;20014;-96
2022/02/14 00:57:00;;;;;;;;;;;;;;;;;;;;;
2022/02/14 00:59:29;;;;;;;4.35;1.70;;;8.20;99.90;;;;;;6048120;23;20084;-93
2022/02/14 01:01:55;;;;;;;6.72;2.53;;;8.20;99.90;;;;;;6079409;23;20013;-92
2022/02/14 01:04:35;;;;;;;5.78;2.05;;;8.20;99.90;;;;;;6056119;23;20027;-95
2022/02/14 01:07:04;;;;;;;3.60;1.90;;;8.20;99.90;;;;;;6072131;23;20022;-95
2022/02/14 01:09:30;;;;;;;11.13;2.85;;;8.20;99.90;;;;;;6067009;23;20180;-94
2022/02/14 01:12:10;;;;;;;6.03;2.47;;;8.30;99.90;;;;;;6047355;23;20014;-95
2022/02/14 01:14:47;;;;;;;4.78;2.10;;;8.20;99.90;;;;;;6019891;23;20013;-93
2022/02/14 01:17:23;;;;;;;8.60;2.28;;;8.20;99.90;;;;;;6053137;23;20045;-94
2022/02/14 01:19:59;;;;;;;4.22;2.20;;;8.20;99.90;;;;;;6013153;23;20022;-93
2022/02/14 01:22:25;;;;;;;3.33;1.70;;;8.20;99.90;;;;;;6015098;23;20035;-92
2022/02/14 01:24:54;;;;;;;3.35;1.98;;;8.20;99.90;;;;;;6040215;23;20016;-93
2022/02/14 01:27:22;;;;;;;4.40;2.00;;;8.20;99.90;;;;;;6051348;23;20077;-93
2022/02/14 01:29:58;;;;;;;3.33;1.92;;;8.20;99.90;;;;;;6087689;23;20057;-94
2022/02/14 01:32:24;;;;;;;;;;;8.10;99.90;;;;;;6060361;23;20006;-94
2022/02/14 01:35:04;;;;;;;9.93;1.90;;;8.10;99.90;;;;;;6061810;23;20389;-94
2022/02/14 01:37:46;;;;;;;10.18;2.33;;;8.10;99.90;;;;;;6056092;23;20038;-92
2022/02/14 01:40:25;;;;;;;8.32;2.63;;;8.10;99.90;;;;;;6054967;23;20009;-92
2022/02/14 01:42:52;;;;;;;4.68;1.80;;;8.10;99.90;;;;;;6057394;23;20017;-93
2022/02/14 01:45:34;;;;;;;7.18;2.38;;;8.10;99.90;;;;;;6016246;23;20017;-93
2022/02/14 01:48:13;;;;;;;;;;;;;;;;;;;;;
2022/02/14 01:50:39;;;;;;;4.38;2.15;;;8.10;99.90;;;;;;6096203;23;20077;-91
2022/02/14 01:53:05;;;;;;;4.78;1.63;;;8.00;99.90;;;;;;6045541;23;20017;-94
2022/02/14 01:55:50;;;;;;;13.80;2.40;;;8.10;99.90;;;;;;6087707;23;20095;-93
2022/02/14 01:58:19;;;;;;;7.45;2.38;;;8.10;99.90;;;;;;6082281;23;20029;-94
2022/02/14 02:00:52;;;;;;;5.80;2.28;;;8.00;99.90;;;;;;6050813;23;20015;-94
2022/02/14 02:03:24;;;;;;;3.10;1.60;;;8.10;99.90;;;;;;6085813;23;20399;-94
2022/02/14 02:06:02;;;;;;;5.43;2.35;;;8.10;99.90;;;;;;6058665;23;20465;-92
2022/02/14 02:08:36;;;;;;;5.53;1.77;;;8.00;99.90;;;;;;6070860;23;20052;-93
2022/02/14 02:13:52;;;;;;;2.55;1.27;;;8.00;99.90;;;;;;6096562;23;20020;-94
2022/02/14 02:16:21;;;;;;;5.07;1.98;;;7.90;99.90;;;;;;6046457;23;20097;-93
2022/02/14 02:18:47;;;;;;;5.65;1.60;;;7.90;99.90;;;;;;6049782;23;20439;-92
2022/02/14 02:21:16;;;;;;;3.67;2.25;;;7.90;99.90;;;;;;6063492;23;20010;-93
2022/02/14 02:24:00;;;;;;;4.07;2.22;;;7.90;99.90;;;;;;6072075;23;20013;-94
2022/02/14 02:26:37;;;;;;;3.03;1.73;;;8.00;99.90;;;;;;6086405;23;20005;-94
2022/02/14 02:29:09;;;;;;;6.95;2.35;;;8.00;99.90;;;;;;6065157;23;20009;-94
2022/02/14 02:31:38;;;;;;;8.05;2.45;;;8.00;99.90;;;;;;6066742;23;20006;-93
2022/02/14 02:34:08;;;;;;;4.18;1.80;;;8.10;99.90;;;;;;6064323;23;20005;-93
2022/02/14 02:36:47;;;;;;;3.97;1.40;;;8.00;99.90;;;;;;6088845;23;20009;-94
2022/02/14 02:39:16;;;;;;;10.20;2.50;;;8.00;99.90;;;;;;6068875;23;20491;-93
2022/02/14 02:41:57;;;;;;;5.60;2.22;;;8.00;99.90;;;;;;6054144;23;20470;-94
2022/02/14 02:44:25;;;;;;;4.57;2.17;;;8.00;99.90;;;;;;6019201;23;20060;-93
2022/02/14 02:46:54;;;;;;;3.60;1.75;;;8.10;99.90;;;;;;6079772;23;20044;-94
2022/02/14 02:49:25;;;;;;;3.25;1.48;;;7.90;99.90;;;;;;6054479;23;20068;-94
2022/02/14 02:51:54;;;;;;;5.45;2.03;;;7.90;99.90;;;;;;6050610;23;19994;-94
2022/02/14 02:54:32;;;;;;;6.43;2.00;;;7.90;99.90;;;;;;6087243;23;20061;-93
2022/02/14 02:59:56;;;;;;;5.25;2.35;;;8.00;99.90;;;;;;6098689;23;20006;-93
2022/02/14 03:02:30;;;;;;;3.05;1.55;;;7.80;99.90;;;;;;6101345;23;20046;-95
2022/02/14 03:05:08;;;;;;;9.57;2.00;;;7.90;99.90;;;;;;6064222;23;20033;-94
2022/02/14 03:07:34;;;;;;;2.65;1.73;;;7.90;99.90;;;;;;6091107;23;20013;-95
2022/02/14 03:10:01;;;;;;;4.22;1.50;;;8.00;99.90;;;;;;6019360;23;20021;-94
2022/02/14 03:12:32;;;;;;;7.38;2.20;;;7.90;99.90;;;;;;6061116;23;20041;-95
2022/02/14 03:15:10;;;;;;;4.07;2.33;;;7.90;99.90;;;;;;6114177;23;20025;-94
2022/02/14 03:17:50;;;;;;;6.97;1.92;;;8.00;99.90;;;;;;6065296;23;20049;-93
2022/02/14 03:20:17;;;;;;;5.93;1.90;;;8.00;99.90;;;;;;6038460;23;20022;-93
2022/02/14 03:22:45;;;;;;;8.57;2.10;;;7.90;99.90;;;;;;6020194;23;20013;-93
2022/02/14 03:25:19;;;;;;;5.63;1.98;;;8.00;99.90;;;;;;6069211;23;20021;-93
2022/02/14 03:27:47;;;;;;;7.13;1.92;;;8.00;99.90;;;;;;6065401;23;20013;-92
2022/02/14 03:30:13;;;;;;;4.45;1.83;;;8.00;99.90;;;;;;6076373;23;20036;-88
2022/02/14 03:32:39;;;;;;;8.20;2.05;;;8.00;99.90;;;;;;6075627;23;20013;-88
2022/02/14 03:35:05;;;;;;;3.33;1.48;;;8.00;99.90;;;;;;6069200;23;20030;-87
2022/02/14 03:37:31;;;;;;;7.20;2.13;;;8.00;99.90;;;;;;6073826;23;20021;-87
2022/02/14 03:39:56;;;;;;;6.97;2.10;;;8.10;99.90;;;;;;6077003;23;20022;-87
2022/02/14 03:42:25;;;;;;;5.25;1.77;;;8.10;99.90;;;;;;6061908;23;20354;-87
2022/02/14 03:44:51;;;;;;;4.15;1.50;;;8.00;99.90;;;;;;6076708;23;20459;-86
2022/02/14 03:47:17;;;;;;;7.55;1.85;;;8.10;99.90;;;;;;6075112;23;20017;-87
2022/02/14 03:49:51;;;;;;;3.95;1.48;;;8.10;99.90;;;;;;6072449;23;20096;-87
2022/02/14 03:52:31;;;;;;;6.60;1.95;;;8.20;99.90;;;;;;6100345;23;20049;-87
2022/02/14 03:54:57;;;;;;;3.90;1.42;;;8.20;99.90;;;;;;6068756;23;20056;-87
2022/02/14 03:57:23;;;;;;;3.40;1.60;;;8.20;99.90;;;;;;6064051;23;20342;-88
2022/02/14 03:59:55;;;;;;;5.00;1.40;;;8.20;99.90;;;;;;6102197;23;20085;-88
2022/02/14 04:02:20;;;;;;;3.78;1.90;;;8.20;99.90;;;;;;6079922;23;20037;-88
2022/02/14 04:04:46;;;;;;;3.22;1.80;;;8.30;99.90;;;;;;6075048;23;20013;-89
2022/02/14 04:07:25;;;;;;;3.63;1.25;;;8.20;99.90;;;;;;6064769;23;20014;-88
2022/02/14 04:09:50;;;;;;;2.53;1.40;;;8.30;99.90;;;;;;6102778;23;20010;-89
2022/02/14 04:12:16;;;;;;;7.05;1.98;;;8.30;99.90;;;;;;6064495;23;20019;-89
2022/02/14 04:14:42;;;;;;;4.95;1.50;;;8.50;99.90;;;;;;6079147;23;20019;-88
2022/02/14 04:17:08;;;;;;;8.50;1.55;;;8.40;99.90;;;;;;6064132;23;20403;-87
2022/02/14 04:19:34;;;;;;;4.93;1.95;;;8.40;99.90;;;;;;6100573;23;20315;-88
2022/02/14 04:21:59;;;;;;;5.20;1.88;;;8.40;99.90;;;;;;6066220;23;20018;-87
2022/02/14 04:24:25;;;;;;;3.70;1.55;;;8.50;99.90;;;;;;6102264;23;20009;-88
2022/02/14 04:26:51;;;;;;;3.28;1.65;;;8.50;99.90;;;;;;6057476;23;20006;-87
2022/02/14 04:29:26;;;;;;;3.85;1.17;;;8.50;99.90;;;;;;6099927;23;20461;-87
2022/02/14 04:31:52;;;;;;;4.28;1.70;;;8.50;99.90;;;;;;6074601;23;20092;-88
2022/02/14 04:34:19;;;;;;;3.42;1.35;;;8.50;99.90;;;;;;6077233;23;20037;-88
2022/02/14 04:36:50;;;;;;;3.80;1.75;;;8.60;99.90;;;;;;6076410;23;20017;-88
2022/02/14 04:39:16;;;;;;;3.05;1.52;;;8.60;99.90;;;;;;6076859;23;20085;-89
2022/02/14 04:41:47;;;;;;;4.63;1.55;;;8.60;99.90;;;;;;6075079;23;20025;-89
2022/02/14 04:44:13;;;;;;;8.20;2.22;;;8.60;99.90;;;;;;6077415;23;20013;-89
2022/02/14 04:46:38;;;;;;;3.35;1.40;;;8.60;99.90;;;;;;6057625;23;20024;-89
2022/02/14 04:49:07;;;;;;;5.15;1.55;;;8.60;99.90;;;;;;6100408;23;20084;-88
2022/02/14 04:51:33;;;;;;;3.83;1.65;;;8.60;99.90;;;;;;6077037;23;20065;-88
2022/02/14 04:54:01;;;;;;;1.60;1.48;;;8.70;99.90;;;;;;6078128;23;20048;-88
2022/02/14 04:56:33;;;;;;;5.30;1.60;;;8.70;99.90;;;;;;6078442;23;20010;-89
2022/02/14 04:59:01;;;;;;;3.03;1.20;;;8.80;99.90;;;;;;6063180;23;20585;-88
2022/02/14 05:01:27;;;;;;;4.03;1.75;;;8.80;99.90;;;;;;6098562;23;20001;-88
2022/02/14 05:03:53;;;;;;;3.17;1.38;;;8.80;99.90;;;;;;6076178;23;20119;-89
2022/02/14 05:06:26;;;;;;;4.10;1.20;;;8.70;99.90;;;;;;6072918;23;20021;-88
2022/02/14 05:08:54;;;;;;;3.42;1.23;;;8.70;99.90;;;;;;6068432;23;20012;-88
2022/02/14 05:11:19;;;;;;;1.52;0.88;;;8.80;99.90;;;;;;6075286;23;20089;-87
2022/02/14 05:13:50;;;;;;;2.95;1.40;;;8.80;99.90;;;;;;6076375;23;20029;-87
2022/02/14 05:16:16;;;;;;;5.82;1.55;;;8.80;99.90;;;;;;6064079;23;20017;-87
2022/02/14 05:18:44;;;;;;;2.97;1.20;;;8.80;99.90;;;;;;6088163;23;20013;-88
2022/02/14 05:21:09;;;;;;;2.80;1.27;;;8.80;99.90;;;;;;6074120;23;20020;-88
2022/02/14 05:23:35;;;;;;;2.78;1.35;;;8.80;99.90;;;;;;6076453;23;20338;-89
2022/02/14 05:26:01;;;;;;;6.95;1.70;;;8.80;99.90;;;;;;6077764;23;20009;-90
2022/02/14 05:28:26;;;;;;;1.67;1.08;;;8.80;99.90;;;;;;6045903;23;20041;-91
2022/02/14 05:30:55;;;;;;;5.30;1.80;;;8.90;99.90;;;;;;6089864;23;20091;-89
2022/02/14 05:33:20;;;;;;;3.13;1.50;;;8.90;99.90;;;;;;6063433;23;20018;-88
2022/02/14 05:35:49;;;;;;;4.18;1.33;;;8.90;99.90;;;;;;6058148;23;20092;-89
2022/02/14 05:38:27;;;;;;;3.30;1.55;;;8.90;99.90;;;;;;6072999;23;20013;-89
2022/02/14 05:40:53;;;;;;;1.25;0.65;;;8.90;99.90;;;;;;6049137;23;20144;-90
2022/02/14 05:43:19;;;;;;;2.33;1.33;;;8.90;99.90;;;;;;6073437;23;20013;-87
2022/02/14 05:45:45;;;;;;;2.53;1.52;;;9.00;99.90;;;;;;6075200;23;20017;-88
2022/02/14 05:48:16;;;;;;;2.60;1.17;;;9.00;99.90;;;;;;6068885;23;20347;-89
2022/02/14 05:51:15;;;;;;;5.28;1.50;;;9.00;99.90;;;;;;6006987;23;20046;-90
2022/02/14 05:53:41;;;;;;;5.55;2.00;;;9.00;99.90;;;;;;6091782;23;20009;-89
2022/02/14 05:56:06;;;;;;;5.05;1.52;;;9.00;99.90;;;;;;6061107;23;20018;-88
2022/02/14 05:58:33;;;;;;;4.00;1.20;;;9.00;99.90;;;;;;6100654;23;20549;-89
2022/02/14 06:01:00;;;;;;;2.88;1.58;;;9.00;99.90;;;;;;6075302;23;20009;-89
2022/02/14 06:03:25;;;;;;;7.82;1.38;;;9.00;99.90;;;;;;6049600;23;20017;-88
2022/02/14 06:05:54;;;;;;;2.08;1.45;;;9.00;99.90;;;;;;6076461;23;19997;-88
2022/02/14 06:08:21;;;;;;;1.92;1.00;;;8.90;99.90;;;;;;6078259;23;20020;-88
2022/02/14 06:10:47;;;;;;;2.28;1.75;;;9.00;99.90;;;;;;6075760;23;20006;-88
2022/02/14 06:13:13;;;;;;;4.43;1.40;;;8.90;99.90;;;;;;6071477;23;20013;-89
2022/02/14 06:15:51;;;;;;;3.28;1.45;;;9.00;99.90;;;;;;6075561;23;20089;-88
2022/02/14 06:18:16;;;;;;;1.75;1.15;;;8.90;99.90;;;;;;6051011;23;20017;-90
2022/02/14 06:20:42;;;;;;;5.40;1.60;;;8.90;99.90;;;;;;6082876;23;20029;-89
2022/02/14 06:23:08;;;;;;;3.20;1.60;;;8.90;99.90;;;;;;6104056;23;20088;-88
2022/02/14 06:25:34;;;;;;;2.47;1.20;;;8.90;99.90;;;;;;6076323;23;20020;-89
2022/02/14 06:28:00;;;;;;;2.00;1.13;;;8.90;99.90;;;;;;6084939;23;20021;-89
2022/02/14 06:30:26;;;;;;;1.83;1.23;;;8.90;99.90;;;;;;6098589;23;20877;-90
2022/02/14 06:33:13;;;;;;;;;;;;;;;;;;;;;
2022/02/14 06:35:47;;;;;;;2.85;1.10;;;8.90;99.90;;;;;;6092521;23;20373;-89
2022/02/14 06:38:36;;;;;;;4.78;1.33;;;8.90;99.90;;;;;;6051926;23;20022;-90
2022/02/14 06:41:02;;;;;;;1.58;0.93;;;8.90;99.90;;;;;;6104076;23;20039;-89
2022/02/14 06:43:32;;;;;;;3.78;1.27;;;8.90;99.90;;;;;;6073585;23;20040;-88
2022/02/14 06:45:57;;;;;;;4.75;1.52;;;9.00;99.90;;;;;;6100361;23;20036;-89
2022/02/14 06:48:23;;;;;;;2.88;1.80;;;8.90;99.90;;;;;;6064019;23;20347;-90
2022/02/14 06:50:49;;;;;;;3.05;1.50;;;9.00;99.90;;;;;;6054398;23;20006;-89
2022/02/14 06:53:15;;;;;;;2.28;1.90;;;9.00;99.90;;;;;;6073638;23;20037;-89
2022/02/14 06:55:43;;;;;;;2.88;1.20;;;9.00;99.90;;;;;;6096633;23;20044;-91
2022/02/14 06:58:23;;;;;;;2.97;1.27;;;9.00;99.90;;;;;;6076563;23;20040;-88
2022/02/14 07:00:49;;;;;;;3.13;1.52;;;9.00;99.90;;;;;;6072405;23;20010;-89
2022/02/14 07:03:15;;;;;;;3.55;1.90;;;9.00;99.90;;;;;;6072537;23;20024;-90
2022/02/14 07:05:45;;;;;;;4.70;1.38;;;9.00;99.90;;;;;;6061949;23;20496;-90
2022/02/14 07:08:11;;;;;;;2.45;1.40;;;9.00;99.90;;;;;;6076321;23;20017;-90
2022/02/14 07:10:37;;;;;;;2.75;0.88;;;9.10;99.90;;;;;;6050122;23;20327;-90
2022/02/14 07:13:03;;;;;;;2.17;1.08;;;9.10;99.90;;;;;;6099477;23;20018;-89
2022/02/14 07:15:31;;;;;;;4.28;1.70;;;9.10;99.90;;;;;;6074804;23;20013;-90
2022/02/14 07:17:57;;;;;;;2.42;1.15;;;9.10;99.90;;;;;;6056271;23;20025;-89
2022/02/14 07:20:29;;;;;;;3.50;1.50;;;9.10;99.90;;;;;;6060388;23;20338;-89
2022/02/14 07:22:54;;;;;;;2.45;1.20;;;9.20;99.90;;;;;;6062456;23;20013;-89
2022/02/14 07:25:36;;;;;;;3.83;1.20;;;9.20;99.90;;;;;;6063163;23;20040;-89
2022/02/14 07:28:02;;;;;;;2.47;1.20;;;9.10;99.90;;;;;;6070824;23;20438;-90
2022/02/14 07:30:28;;;;;;;2.03;1.30;;;9.10;99.90;;;;;;6059477;23;20025;-89
2022/02/14 07:32:56;;;;;;;4.88;1.73;;;9.20;99.90;;;;;;6036173;23;20454;-91
2022/02/14 07:35:22;;;;;;;4.15;1.40;;;9.20;99.90;;;;;;6075353;23;20056;-90
2022/02/14 07:37:49;;;;;;;3.47;1.35;;;9.30;99.90;;;;;;6061282;23;20006;-89
2022/02/14 07:40:17;;;;;;;2.95;1.30;;;9.30;99.90;;;;;;6049167;23;20016;-90
2022/02/14 07:43:34;;;;;;;2.22;1.17;;;9.30;99.90;;;;;;6032448;23;20010;-89
2022/02/14 07:46:01;;;;;;;2.35;1.00;;;9.40;99.90;;;;;;6095030;23;20029;-90
2022/02/14 07:48:27;;;;;;;3.03;1.33;;;9.40;99.90;;;;;;6097103;23;20545;-89
2022/02/14 07:50:56;;;;;;;4.85;1.30;;;9.40;99.90;;;;;;6058599;23;20006;-88
2022/02/14 07:53:24;;;;;;;2.63;1.40;;;9.50;99.90;;;;;;6074798;23;20014;-88
2022/02/14 07:55:51;;;;;;;2.15;1.23;;;9.50;99.90;;;;;;6062865;23;20076;-89
2022/02/14 07:58:17;;;;;;;1.77;0.88;;;9.50;99.90;;;;;;6070240;23;20021;-87
2022/02/14 08:00:44;;;;;;;1.73;1.00;;;9.60;99.90;;;;;;6072925;23;20013;-88
2022/02/14 08:03:10;;;;;;;3.92;1.17;;;9.60;99.90;;;;;;6073186;23;20014;-89
2022/02/14 08:05:35;;;;;;;3.22;1.10;;;9.60;99.90;;;;;;6071897;23;20024;-90
2022/02/14 08:08:04;;;;;;;3.00;1.33;;;9.70;99.90;;;;;;6074379;23;20041;-89
2022/02/14 08:10:32;;;;;;;1.55;1.10;;;9.70;99.90;;;;;;6074603;23;20312;-88
2022/02/14 08:12:58;;;;;;;5.03;1.67;;;9.70;99.90;;;;;;6096114;23;20072;-88
2022/02/14 08:15:24;;;;;;;2.10;1.10;;;9.70;99.90;;;;;;6060780;23;20017;-87
2022/02/14 08:18:05;;;;;;;5.35;1.25;;;9.70;99.90;;;;;;6073735;23;20029;-87
2022/02/14 08:20:32;;;;;;;5.55;1.05;;;9.80;99.90;;;;;;6073787;23;20013;-89
2022/02/14 08:22:57;;;;;;;2.25;1.02;;;9.80;99.90;;;;;;6075533;23;20017;-88
2022/02/14 08:25:23;;;;;;;4.47;1.15;;;9.80;99.90;;;;;;6072568;23;20014;-87
2022/02/14 08:27:49;;;;;;;1.65;0.75;;;9.80;99.90;;;;;;6072942;23;20009;-88
2022/02/14 08:30:14;;;;;;;2.63;1.20;;;9.90;99.90;;;;;;6057416;23;20009;-87
2022/02/14 08:32:40;;;;;;;2.80;1.42;;;9.90;99.90;;;;;;6072929;23;20037;-91
2022/02/14 08:35:07;;;;;;;2.35;1.05;;;9.90;99.90;;;;;;6070877;23;20022;-90
2022/02/14 08:37:33;;;;;;;3.53;1.35;;;10.00;99.90;;;;;;6071467;23;20089;-87
2022/02/14 08:39:58;;;;;;;3.92;0.80;;;10.00;99.90;;;;;;6071603;23;20094;-88
2022/02/14 08:42:24;;;;;;;1.52;0.52;;;10.10;99.90;;;;;;6070665;23;20014;-88
2022/02/14 08:44:51;;;;;;;2.28;1.08;;;10.10;99.90;;;;;;6075233;23;20092;-88
2022/02/14 08:47:19;;;;;;;4.10;1.45;;;10.10;99.90;;;;;;6073572;23;20332;-89
2022/02/14 08:49:45;;;;;;;3.75;1.42;;;10.20;99.90;;;;;;6070034;23;20446;-89
2022/02/14 08:52:10;;;;;;;5.28;1.33;;;10.20;99.90;;;;;;6074029;23;20024;-90
2022/02/14 08:54:36;;;;;;;4.18;1.15;;;10.30;99.90;;;;;;6055926;23;20037;-90
2022/02/14 08:57:02;;;;;;;1.25;0.75;;;10.30;99.90;;;;;;6095169;23;20106;-89
2022/02/14 08:59:28;;;;;;;2.30;0.65;;;10.30;99.90;;;;;;6096432;23;20057;-88
2022/02/14 09:01:54;;;;;;;3.70;1.27;;;10.30;99.90;;;;;;6045574;23;20065;-88
2022/02/14 09:04:20;;;;;;;3.80;0.73;;;10.40;99.90;;;;;;6088471;23;20015;-87
2022/02/14 09:06:48;;;;;;;1.55;1.00;;;10.30;99.90;;;;;;6066805;23;20502;-90
2022/02/14 09:09:14;;;;;;;2.88;1.25;;;10.20;99.90;;;;;;6062056;23;20040;-87
2022/02/14 09:11:43;;;;;;;3.80;1.30;;;10.30;99.90;;;;;;6097661;23;20542;-88
2022/02/14 09:14:08;;;;;;;5.55;1.20;;;10.30;99.90;;;;;;6071583;23;20017;-88
2022/02/14 09:16:34;;;;;;;1.65;1.00;;;10.40;99.90;;;;;;6072704;23;20689;-89
2022/02/14 09:19:00;;;;;;;2.75;1.33;;;10.40;99.90;;;;;;6059762;23;20454;-89
2022/02/14 09:21:26;;;;;;;2.55;1.55;;;10.40;99.90;;;;;;6069723;23;20006;-89
2022/02/14 09:23:52;;;;;;;1.73;0.80;;;10.40;99.90;;;;;;6073839;23;20009;-87
2022/02/14 09:26:18;;;;;;;3.35;1.50;;;10.40;99.90;;;;;;6060552;23;20038;-87
2022/02/14 09:28:43;;;;;;;2.63;1.20;;;10.40;99.90;;;;;;6069037;23;20002;-87
2022/02/14 09:31:09;;;;;;;4.25;1.20;;;10.40;99.90;;;;;;6074593;23;20005;-88
2022/02/14 09:33:35;;;;;;;5.32;1.08;;;10.50;99.90;;;;;;6099076;23;20009;-89
2022/02/14 09:36:00;;;;;;;1.42;1.05;;;10.40;99.90;;;;;;6059475;23;20056;-87
2022/02/14 09:38:27;;;;;;;1.55;1.05;;;10.50;99.90;;;;;;6059210;23;20010;-88
2022/02/14 09:40:55;;;;;;;3.47;1.80;;;10.50;99.90;;;;;;6098159;23;20079;-89
2022/02/14 09:43:24;;;;;;;4.88;1.40;;;10.50;99.90;;;;;;6036946;23;20022;-89
2022/02/14 09:45:50;;;;;;;2.42;0.80;;;10.50;99.90;;;;;;6056451;23;20504;-89
2022/02/14 09:48:21;;;;;;;1.52;0.73;;;10.60;99.90;;;;;;6059838;23;20026;-88
2022/02/14 09:50:47;;;;;;;1.20;0.88;;;10.60;99.90;;;;;;6073455;23;20014;-88
2022/02/14 09:53:17;;;;;;;5.20;1.55;;;10.70;99.90;;;;;;6074646;23;20013;-90
2022/02/14 09:55:47;;;;;;;1.60;0.93;;;10.70;99.90;;;;;;6058994;23;20327;-88
2022/02/14 09:58:13;;;;;;;2.30;0.80;;;10.70;99.90;;;;;;6074689;23;20020;-89
2022/02/14 10:00:39;;;;;;;1.88;0.75;;;10.70;99.90;;;;;;6057924;23;20010;-88
2022/02/14 10:03:08;;;;;;;3.75;1.20;;;10.70;99.90;;;;;;6081444;23;20022;-88
2022/02/14 10:05:51;;;;;;;1.02;0.60;;;10.70;99.90;;;;;;6120459;23;20087;-89
2022/02/14 10:08:19;;;;;;;1.48;0.57;;;10.70;99.90;;;;;;6075600;23;20017;-88
2022/02/14 10:10:47;;;;;;;1.85;0.95;;;10.70;99.90;;;;;;6073511;23;20013;-88
2022/02/14 10:13:27;;;;;;;1.63;0.75;;;10.80;99.90;;;;;;6096555;23;20093;-89
2022/02/14 10:15:53;;;;;;;1.20;0.82;;;10.70;99.90;;;;;;6064299;23;20013;-91
2022/02/14 10:18:31;;;;;;;0.50;0.50;;;10.70;99.90;;;;;;6070000;23;20013;-88
2022/02/14 10:21:23;;;;;;;0.98;0.50;;;10.80;99.90;;;;;;6060672;23;20435;-87
2022/02/14 10:24:15;;;;;;;0.77;0.35;;;10.80;99.90;;;;;;6105830;23;20013;-90
2022/02/14 10:26:45;;;;;;;4.43;0.68;;;10.90;99.90;;;;;;6054405;23;20454;-88
2022/02/14 10:29:23;;;;;;;1.88;0.70;;;10.80;99.90;;;;;;6062619;23;20017;-89
2022/02/14 10:31:53;;;;;;;1.10;0.63;;;10.90;99.90;;;;;;6114151;23;20025;-89
2022/02/14 10:34:31;;;;;;;1.33;0.47;;;10.90;99.90;;;;;;6072358;23;20017;-89
2022/02/14 10:36:57;;;;;;;2.25;0.55;;;10.90;99.90;;;;;;6070396;23;20010;-89
2022/02/14 10:39:25;;;;;;;0.70;0.30;;;11.00;99.90;;;;;;6071013;23;20013;-89
2022/02/14 10:42:08;;;;;;;1.45;0.60;;;11.00;99.90;;;;;;6073374;23;20009;-89
2022/02/14 10:47:31;;;;;;;1.30;0.50;;;11.10;99.90;;;;;;6105582;23;20071;-88
2022/02/14 10:50:08;;;;;;;0.13;0.13;;;11.20;99.90;;;;;;6074418;23;20017;-89
2022/02/14 10:52:40;;;;;;;0.80;0.40;;;11.30;99.90;;;;;;6098386;23;20442;-89
2022/02/14 10:55:08;;;;;;;1.52;0.40;;;11.40;99.90;;;;;;6095944;23;20079;-89
2022/02/14 10:57:36;;;;;;;0.30;0.30;;;11.50;99.90;;;;;;6060925;23;20065;-90
2022/02/14 11:00:06;;;;;;;1.50;0.38;;;11.60;99.90;;;;;;6058960;23;20018;-91
2022/02/14 11:02:32;;;;;;;3.03;0.82;;;11.60;99.90;;;;;;6096932;23;20010;-89
2022/02/14 11:04:58;;;;;;;0.73;0.47;;;11.60;99.90;;;;;;6073405;23;20109;-89
2022/02/14 11:07:25;;;;;;;2.90;0.52;;;11.80;99.90;;;;;;6073644;23;20009;-90
2022/02/14 11:10:01;;;;;;;2.10;0.60;;;11.80;99.90;;;;;;6060026;23;20009;-90
2022/02/14 11:12:38;;;;;;;0.32;0.32;;;11.70;99.90;;;;;;6050099;23;20017;-90
2022/02/14 11:15:06;;;;;;;0.15;0.15;;;11.70;99.90;;;;;;6060015;23;20013;-90
2022/02/14 11:17:33;;;;;;;0.40;0.40;;;11.70;99.90;;;;;;6061071;23;20012;-91
2022/02/14 11:20:00;;;;;;;1.17;0.52;;;11.70;99.90;;;;;;6074372;23;20024;-88
2022/02/14 11:23:14;;;;;;;2.08;0.50;;;11.70;99.90;;;;;;6060467;23;20014;-90
2022/02/14 11:26:40;;;;;;;;;;;;;;;;;;;;;
2022/02/14 11:29:19;;;;;;;0.85;0.60;;;11.70;99.90;;;;;;6096311;23;20586;-90
2022/02/14 11:32:32;;;;;;;0.85;0.30;;;11.50;99.90;;;;;;6082170;23;20166;-90
2022/02/14 11:38:18;;;;;;;0.43;0.30;;;11.70;99.90;;;;;;5957037;23;20440;-90
2022/02/14 11:40:48;;;;;;;0.38;0.30;;;11.90;99.90;;;;;;6028090;23;20026;-91
2022/02/14 11:43:34;;;;;;;0.70;0.30;;;12.10;99.90;;;;;;6029763;23;20021;-89
2022/02/14 11:46:19;;;;;;;0.60;0.40;;;12.40;99.90;;;;;;6106671;23;20021;-89
2022/02/14 11:49:05;;;;;;;0.85;0.50;;;12.50;99.90;;;;;;6098111;23;20021;-90
2022/02/14 11:51:37;;;;;;;5.15;0.55;;;12.60;99.90;;;;;;6061607;23;20741;-90
2022/02/14 11:54:07;;;;;;;1.10;0.40;;;13.00;99.90;;;;;;6065219;23;20044;-90
2022/02/14 11:56:36;;;;;;;1.10;0.30;;;13.00;99.90;;;;;;6081932;23;20021;-89
2022/02/14 11:59:12;;;;;;;0.32;0.30;;;13.10;99.90;;;;;;6074568;23;20103;-90
2022/02/14 12:01:59;;;;;;;1.77;0.22;;;13.00;99.90;;;;;;6064324;23;20010;-90
2022/02/14 12:04:31;;;;;;;1.23;0.35;;;13.20;99.90;;;;;;6122461;23;20013;-90
2022/02/14 12:07:20;;;;;;;4.20;0.35;;;13.10;99.90;;;;;;6106080;23;20028;-91
2022/02/14 12:10:01;;;;;;;0.15;0.15;;;13.20;99.90;;;;;;6099836;23;20010;-89
2022/02/14 12:12:58;;;;;;;0.50;0.30;;;13.20;99.90;;;;;;6123142;23;20100;-90
2022/02/14 12:20:48;;;;;;;0.63;0.40;;;12.90;99.90;;;;;;6107885;23;20020;-89
2022/02/14 12:23:14;;;;;;;0.50;0.50;;;12.90;99.90;;;;;;6075616;23;20009;-90
2022/02/14 12:25:47;;;;;;;2.10;0.50;;;12.80;99.90;;;;;;6064100;23;20014;-90
2022/02/14 12:28:17;;;;;;;0.30;0.20;;;12.80;99.90;;;;;;6065092;23;20012;-90
2022/02/14 12:30:43;;;;;;;0.55;0.38;;;12.60;99.90;;;;;;6061708;23;20089;-90
2022/02/14 12:33:11;;;;;;;0.65;0.43;;;12.60;99.90;;;;;;6044246;23;20065;-91
2022/02/14 12:35:42;;;;;;;1.15;0.73;;;12.60;99.90;;;;;;6050871;23;20029;-91
2022/02/14 12:38:08;;;;;;;0.47;0.17;;;12.60;99.90;;;;;;6079104;23;20013;-90
2022/02/14 12:40:49;;;;;;;0.43;0.38;;;12.40;99.90;;;;;;6086843;23;20014;-88
2022/02/14 12:43:25;;;;;;;1.20;0.40;;;12.30;99.90;;;;;;6058447;23;20017;-90
2022/02/14 12:45:52;;;;;;;1.13;0.82;;;12.20;99.90;;;;;;6095581;23;20029;-89
2022/02/14 12:48:53;;;;;;;2.92;0.65;;;12.20;99.90;;;;;;6078428;23;20013;-90
2022/02/14 12:51:27;;;;;;;0.88;0.35;;;12.10;99.90;;;;;;6124506;23;20009;-88
2022/02/14 12:54:11;;;;;;;1.85;0.30;;;11.90;99.90;;;;;;6047546;23;20517;-89
2022/02/14 12:56:38;;;;;;;1.08;0.77;;;11.80;99.90;;;;;;6052932;23;20024;-91
2022/02/14 12:59:42;;;;;;;1.73;0.50;;;11.70;99.90;;;;;;6047125;23;20014;-89
2022/02/14 13:02:24;;;;;;;0.57;0.52;;;11.70;99.90;;;;;;6117907;23;20017;-90
2022/02/14 13:04:55;;;;;;;4.25;0.60;;;11.60;99.90;;;;;;6075489;23;20005;-90
2022/02/14 13:07:24;;;;;;;0.32;0.32;;;11.60;99.90;;;;;;6044693;23;20013;-90
2022/02/14 13:10:12;;;;;;;3.15;0.50;;;11.50;99.90;;;;;;6092573;23;20027;-90
2022/02/14 13:12:38;;;;;;;1.50;0.50;;;11.50;99.90;;;;;;6016271;23;20446;-89
2022/02/14 13:15:05;;;;;;;1.65;0.50;;;11.50;99.90;;;;;;6026912;23;20022;-89
2022/02/14 13:17:32;;;;;;;0.60;0.35;;;11.50;99.90;;;;;;6058818;23;20089;-89
2022/02/14 13:20:04;;;;;;;1.13;0.57;;;11.50;99.90;;;;;;6058001;23;20017;-89
2022/02/14 13:22:39;;;;;;;2.90;0.70;;;11.40;99.90;;;;;;6089383;23;20013;-89
2022/02/14 13:25:18;;;;;;;2.88;0.60;;;11.40;99.90;;;;;;6036359;23;20088;-89
2022/02/14 13:27:44;;;;;;;4.47;0.50;;;11.40;99.90;;;;;;6071585;23;20010;-89
2022/02/14 13:30:11;;;;;;;3.40;0.52;;;11.50;99.90;;;;;;6084643;23;20013;-88
2022/02/14 13:32:39;;;;;;;2.50;0.43;;;11.40;99.90;;;;;;6086856;23;20006;-89
2022/02/14 13:35:07;;;;;;;1.40;0.40;;;11.60;99.90;;;;;;6076171;23;20089;-89
2022/02/14 13:37:42;;;;;;;2.42;0.60;;;11.50;99.90;;;;;;6075211;23;20068;-90